全部
Dimmit County Airport (Carrizo Springs, TX) CZT 天气
|
Carrizo Springs, TX (KCZT)
晴天
微风 |
|
29 °C |
There is no TAF data available at CZT or any nearby airports.
CZT近期METAR历史数据
| Date | Time (CDT) | Flight Rules | Wind Dir. | Speed | Type | Height AGL (ft) | Visibility | Temp (°C) | Temp (°F) | Dew Point (°C) | Dew Point (°F) | Rel. Humid. | Pressure | Density Altitude | Remarks |
|---|---|---|---|---|---|---|---|---|---|---|---|---|---|---|---|
| 04-五月 | 17:55 | VFR | 140° | 10 kt | 10 miles | 29° | 84° | 17° | 62° | 48% | 29.80 in Hg | 2,398 ft | Wind gusting to 15 KT | ||
| 04-五月 | 17:15 | VFR | 160° | 8 kt | 10 miles | 29° | 84° | 17° | 62° | 48% | 29.82 in Hg | 2,378 ft | Wind gusting to 17 KT | ||
| 04-五月 | 16:55 | VFR | 160° | 11 kt | 10 miles | 29° | 84° | 18° | 64° | 52% | 29.82 in Hg | 2,378 ft | Wind gusting to 14 KT | ||
| 04-五月 | 16:15 | VFR | 160° | 10 kt | 10 miles | 29° | 84° | 17° | 62° | 48% | 29.84 in Hg | 2,358 ft | Wind gusting to 16 KT | ||
| 04-五月 | 15:55 | VFR | 160° | 10 kt | 10 miles | 29° | 84° | 17° | 62° | 48% | 29.85 in Hg | 2,348 ft | Wind gusting to 15 KT | ||
| 04-五月 | 15:35 | VFR | 170° | 9 kt | 10 miles | 29° | 84° | 17° | 62° | 48% | 29.87 in Hg | 2,328 ft | Wind gusting to 16 KT | ||
| 04-五月 | 14:55 | VFR | 160° | 11 kt | 10 miles | 28° | 82° | 17° | 62° | 51% | 29.88 in Hg | 2,198 ft | Wind gusting to 14 KT | ||
| 04-五月 | 14:15 | VFR | 170° | 8 kt | 10 miles | 27° | 80° | 17° | 62° | 54% | 29.90 in Hg | 2,058 ft | Wind gusting to 15 KT | ||
| 04-五月 | 13:55 | VFR | 150° | 10 kt | 10 miles | 27° | 80° | 17° | 62° | 54% | 29.90 in Hg | 2,058 ft | Wind gusting to 17 KT | ||
| 04-五月 | 13:35 | VFR | 170° | 10 kt | 10 miles | 27° | 80° | 17° | 62° | 54% | 29.91 in Hg | 2,048 ft | Wind gusting to 15 KT | ||
| 04-五月 | 13:15 | VFR | 190° | 11 kt | 10 miles | 27° | 80° | 17° | 62° | 54% | 29.92 in Hg | 2,038 ft | Wind gusting to 16 KT | ||
| 04-五月 | 12:55 | VFR | 160° | 12 kt | 10 miles | 26° | 78° | 17° | 62° | 58% | 29.92 in Hg | 1,918 ft | Wind gusting to 17 KT | ||
| 04-五月 | 12:15 | VFR | 170° | 11 kt | 10 miles | 26° | 78° | 17° | 62° | 58% | 29.94 in Hg | 1,898 ft | Wind gusting to 17 KT | ||
| 04-五月 | 11:55 | VFR | 170° | 11 kt | 10 miles | 26° | 78° | 17° | 62° | 58% | 29.94 in Hg | 1,898 ft | Wind gusting to 18 KT | ||
| 04-五月 | 11:15 | VFR | 160° | 11 kt | 10 miles | 25° | 77° | 17° | 62° | 61% | 29.94 in Hg | 1,778 ft | Wind gusting to 15 KT | ||
| 04-五月 | 10:55 | VFR | 190° | 10 kt | 10 miles | 24° | 75° | 17° | 62° | 65% | 29.96 in Hg | 1,638 ft | |||
| 04-五月 | 10:15 | VFR | 160° | 12 kt | 10 miles | 23° | 73° | 17° | 62° | 69% | 29.95 in Hg | 1,528 ft | Wind gusting to 17 KT | ||
| 04-五月 | 09:55 | VFR | 180° | 11 kt | 10 miles | 22° | 71° | 17° | 62° | 73% | 29.97 in Hg | 1,388 ft | Wind gusting to 16 KT | ||
| 04-五月 | 09:35 | VFR | 170° | 11 kt | 10 miles | 22° | 71° | 18° | 64° | 78% | 29.96 in Hg | 1,398 ft | Wind gusting to 14 KT | ||
| 04-五月 | 09:15 | VFR | 160° | 8 kt | 10 miles | 21° | 69° | 18° | 64° | 83% | 29.96 in Hg | 1,278 ft | |||
| 04-五月 | 08:55 | VFR | 170° | 9 kt | 10 miles | 20° | 68° | 18° | 64° | 88% | 29.96 in Hg | 1,158 ft | |||
| 04-五月 | 08:35 | VFR | 140° | 6 kt | 10 miles | 20° | 68° | 18° | 64° | 88% | 29.97 in Hg | 1,148 ft | |||
| 04-五月 | 08:15 | VFR | 140° | 3 kt | 10 miles | 18° | 64° | 18° | 64° | 100% | 29.97 in Hg | 908 ft | |||
| 04-五月 | 07:55 | VFR | 150° | 4 kt | 10 miles | 17° | 62° | 17° | 62° | 100% | 29.96 in Hg | 798 ft |
登录
| 您的浏览器不支持. 升级您的浏览器 |
